createdAt,value
2023-01-22T00:01:32.599Z,3.80
2023-01-22T00:04:01.654Z,4.32
2023-01-22T00:06:32.256Z,4.03
2023-01-22T00:09:04.027Z,4.00
2023-01-22T00:11:32.591Z,3.53
2023-01-22T00:14:02.459Z,3.35
2023-01-22T00:16:31.234Z,3.33
2023-01-22T00:18:59.757Z,3.38
2023-01-22T00:21:28.822Z,3.42
2023-01-22T00:23:57.333Z,3.30
2023-01-22T00:26:25.905Z,3.00
2023-01-22T00:28:54.555Z,3.17
2023-01-22T00:31:26.236Z,3.10
2023-01-22T00:33:54.841Z,3.65
2023-01-22T00:36:25.402Z,2.90
2023-01-22T00:38:54.170Z,2.95
2023-01-22T00:41:22.937Z,3.60
2023-01-22T00:43:52.993Z,2.97
2023-01-22T00:46:22.299Z,3.90
2023-01-22T00:48:52.301Z,3.17
2023-01-22T00:51:20.977Z,2.95
2023-01-22T00:53:49.572Z,3.63
2023-01-22T00:56:18.226Z,3.38
2023-01-22T00:58:46.708Z,3.15
2023-01-22T01:01:16.922Z,2.83
2023-01-22T01:03:45.408Z,3.10
2023-01-22T01:06:19.995Z,3.08
2023-01-22T01:08:49.836Z,4.10
2023-01-22T01:11:22.152Z,4.15
2023-01-22T01:13:51.763Z,4.65
2023-01-22T01:16:23.933Z,4.60
2023-01-22T01:18:52.662Z,4.82
2023-01-22T01:21:22.691Z,5.05
2023-01-22T01:23:51.314Z,5.07
2023-01-22T01:26:20.261Z,4.55
2023-01-22T01:28:49.439Z,4.40
2023-01-22T01:31:18.584Z,5.10
2023-01-22T01:33:47.893Z,5.30
2023-01-22T01:36:21.287Z,5.57
2023-01-22T01:38:57.770Z,5.10
2023-01-22T01:41:27.909Z,5.17
2023-01-22T01:44:10.481Z,4.77
2023-01-22T01:46:43.273Z,4.53
2023-01-22T01:49:19.776Z,4.25
2023-01-22T01:51:49.496Z,4.05
2023-01-22T01:54:20.093Z,4.47
2023-01-22T01:56:52.263Z,4.20
2023-01-22T01:59:23.442Z,4.70
2023-01-22T02:01:56.365Z,4.82
2023-01-22T02:04:25.870Z,3.60
2023-01-22T02:06:55.374Z,4.22
2023-01-22T02:09:25.423Z,4.00
2023-01-22T02:11:55.207Z,4.10
2023-01-22T02:14:28.084Z,4.05
2023-01-22T02:17:04.134Z,3.80
2023-01-22T02:19:32.686Z,4.75
2023-01-22T02:22:02.927Z,4.18
2023-01-22T02:24:32.134Z,3.88
2023-01-22T02:27:00.781Z,4.93
2023-01-22T02:29:29.671Z,3.88
2023-01-22T02:31:58.243Z,3.85
2023-01-22T02:34:26.776Z,4.30
2023-01-22T02:36:55.393Z,5.32
2023-01-22T02:39:25.392Z,5.50
2023-01-22T02:41:55.051Z,4.50
2023-01-22T02:44:23.816Z,5.00
2023-01-22T02:46:52.334Z,5.45
2023-01-22T02:49:20.893Z,5.90
2023-01-22T02:51:49.375Z,5.82
2023-01-22T02:54:18.078Z,5.13
2023-01-22T02:56:48.039Z,5.82
2023-01-22T02:59:16.651Z,5.87
2023-01-22T03:01:45.343Z,5.18
2023-01-22T03:04:13.920Z,6.10
2023-01-22T03:06:45.016Z,5.95
2023-01-22T03:09:17.561Z,4.93
2023-01-22T03:11:48.682Z,4.43
2023-01-22T03:14:42.263Z,5.82
2023-01-22T03:17:28.299Z,5.13
2023-01-22T03:20:14.862Z,4.35
2023-01-22T03:22:43.420Z,5.00
2023-01-22T03:25:11.993Z,5.45
2023-01-22T03:28:02.734Z,4.63
2023-01-22T03:33:00.319Z,3.75
2023-01-22T03:35:28.881Z,3.83
2023-01-22T03:38:14.134Z,4.20
2023-01-22T03:40:43.262Z,4.65
2023-01-22T03:43:13.457Z,3.10
2023-01-22T03:45:42.307Z,2.80
2023-01-22T03:48:14.215Z,3.70
2023-01-22T03:50:43.297Z,3.25
2023-01-22T03:53:11.736Z,3.33
2023-01-22T03:55:40.358Z,3.80
2023-01-22T03:58:09.033Z,3.35
2023-01-22T04:00:40.605Z,4.15
2023-01-22T04:03:10.060Z,3.38
2023-01-22T04:08:12.482Z,3.22
2023-01-22T04:10:45.570Z,3.10
2023-01-22T04:13:17.209Z,3.50
2023-01-22T04:15:50.492Z,3.45
2023-01-22T04:18:41.889Z,3.35
2023-01-22T04:21:49.410Z,4.60
2023-01-22T04:24:19.526Z,4.30
2023-01-22T04:26:48.630Z,5.90
2023-01-22T04:29:21.305Z,5.47
2023-01-22T04:31:52.029Z,6.20
2023-01-22T04:34:21.027Z,5.50
2023-01-22T04:37:23.104Z,6.22
2023-01-22T04:39:52.323Z,6.40
2023-01-22T04:42:21.268Z,6.22
2023-01-22T04:44:50.685Z,7.07
2023-01-22T04:47:20.802Z,6.57
2023-01-22T04:49:50.742Z,6.57
2023-01-22T04:52:19.687Z,5.90
2023-01-22T04:54:50.067Z,6.30
2023-01-22T04:57:21.546Z,6.07
2023-01-22T04:59:53.865Z,6.13
2023-01-22T05:02:27.028Z,5.75
2023-01-22T05:04:56.468Z,4.80
2023-01-22T05:07:25.406Z,5.47
2023-01-22T05:09:54.287Z,4.47
2023-01-22T05:12:23.401Z,5.00
2023-01-22T05:14:54.654Z,5.15
2023-01-22T05:17:25.120Z,6.07
2023-01-22T05:19:53.966Z,6.28
2023-01-22T05:22:23.422Z,5.88
2023-01-22T05:24:52.281Z,5.85
2023-01-22T05:27:21.292Z,5.55
2023-01-22T05:30:06.980Z,5.25
2023-01-22T05:33:05.698Z,5.70
2023-01-22T05:35:36.906Z,6.32
2023-01-22T05:40:36.411Z,5.68
2023-01-22T05:43:05.870Z,6.60
2023-01-22T05:45:38.113Z,7.50
2023-01-22T05:48:40.388Z,6.80
2023-01-22T05:51:14.435Z,9.43
2023-01-22T05:53:44.164Z,7.53
2023-01-22T05:56:16.576Z,8.02
2023-01-22T05:58:46.032Z,8.05
2023-01-22T06:01:18.238Z,8.60
2023-01-22T06:04:03.551Z,8.88
2023-01-22T06:06:43.644Z,9.45
2023-01-22T06:09:32.328Z,9.30
2023-01-22T06:12:01.450Z,8.57
2023-01-22T06:14:32.744Z,10.45
2023-01-22T06:17:09.008Z,9.13
2023-01-22T06:19:42.001Z,9.32
2023-01-22T06:22:12.010Z,10.13
2023-01-22T06:24:47.792Z,9.02
2023-01-22T06:27:18.788Z,8.18
2023-01-22T06:30:00.933Z,9.43
2023-01-22T06:32:30.341Z,9.43
2023-01-22T06:35:21.163Z,9.80
2023-01-22T06:37:54.001Z,8.90
2023-01-22T06:40:24.175Z,8.45
2023-01-22T06:42:52.973Z,8.73
2023-01-22T06:45:23.066Z,9.07
2023-01-22T06:47:55.527Z,8.70
2023-01-22T06:50:25.861Z,7.82
2023-01-22T06:52:54.726Z,8.68
2023-01-22T06:55:23.536Z,9.20
2023-01-22T06:57:52.576Z,7.72
2023-01-22T07:02:52.686Z,7.78
2023-01-22T07:05:22.674Z,7.60
2023-01-22T07:07:57.176Z,8.07
2023-01-22T07:10:25.857Z,7.05
2023-01-22T07:12:56.812Z,8.13
2023-01-22T07:15:25.825Z,7.55
2023-01-22T07:17:55.762Z,8.48
2023-01-22T07:20:25.440Z,8.27
2023-01-22T07:23:00.157Z,7.68
2023-01-22T07:25:30.913Z,7.15
2023-01-22T07:28:03.649Z,6.72
2023-01-22T07:30:34.358Z,7.13
2023-01-22T07:33:04.550Z,7.13
2023-01-22T07:35:33.404Z,7.57
2023-01-22T07:38:04.606Z,7.03
2023-01-22T07:40:33.968Z,6.88
2023-01-22T07:43:11.028Z,7.13
2023-01-22T07:45:40.159Z,7.93
2023-01-22T07:48:11.048Z,7.75
2023-01-22T07:50:40.853Z,8.23
2023-01-22T07:53:12.106Z,7.95
2023-01-22T07:55:42.384Z,8.57
2023-01-22T07:58:13.584Z,8.63
2023-01-22T08:00:42.319Z,9.00
2023-01-22T08:03:13.925Z,9.27
2023-01-22T08:05:43.681Z,9.88
2023-01-22T08:08:17.855Z,9.38
2023-01-22T08:10:49.586Z,11.50
2023-01-22T08:13:18.940Z,7.88
2023-01-22T08:15:49.116Z,8.80
2023-01-22T08:18:22.973Z,8.38
2023-01-22T08:20:54.213Z,6.10
2023-01-22T08:23:28.776Z,8.18
2023-01-22T08:26:00.992Z,7.95
2023-01-22T08:28:29.754Z,7.68
2023-01-22T08:31:03.728Z,5.85
2023-01-22T08:33:35.470Z,7.07
2023-01-22T08:36:04.306Z,7.75
2023-01-22T08:38:34.406Z,7.20
2023-01-22T08:41:03.244Z,4.37
2023-01-22T08:43:32.044Z,5.00
2023-01-22T08:46:00.835Z,5.35
2023-01-22T08:48:29.607Z,4.32
2023-01-22T08:51:01.459Z,3.90
2023-01-22T08:53:33.170Z,6.28
2023-01-22T08:56:03.633Z,5.20
2023-01-22T08:58:33.062Z,4.50
2023-01-22T09:01:02.063Z,5.20
2023-01-22T09:03:31.334Z,5.50
2023-01-22T09:06:00.693Z,4.15
2023-01-22T09:08:29.399Z,4.43
2023-01-22T09:10:58.505Z,4.30
2023-01-22T09:13:29.631Z,5.30
2023-01-22T09:15:59.502Z,4.13
2023-01-22T09:18:31.572Z,4.97
2023-01-22T09:21:00.324Z,3.95
2023-01-22T09:23:29.213Z,4.40
2023-01-22T09:25:58.247Z,5.53
2023-01-22T09:28:28.824Z,4.18
2023-01-22T09:30:57.884Z,5.13
2023-01-22T09:33:26.703Z,4.00
2023-01-22T09:35:55.729Z,4.35
2023-01-22T09:38:25.024Z,3.72
2023-01-22T09:40:59.012Z,3.88
2023-01-22T09:43:34.529Z,3.25
2023-01-22T09:46:09.455Z,3.00
2023-01-22T09:48:43.131Z,3.70
2023-01-22T09:51:14.649Z,4.28
2023-01-22T09:53:47.788Z,3.40
2023-01-22T09:56:22.403Z,3.50
2023-01-22T09:58:54.092Z,3.20
2023-01-22T10:01:23.824Z,2.75
2023-01-22T10:03:59.266Z,3.10
2023-01-22T10:06:35.452Z,3.53
2023-01-22T10:09:16.035Z,3.42
2023-01-22T10:11:48.105Z,3.63
2023-01-22T10:14:20.289Z,3.25
2023-01-22T10:16:49.297Z,2.63
2023-01-22T10:19:22.953Z,3.35
2023-01-22T10:21:55.436Z,3.08
2023-01-22T10:24:24.397Z,2.35
2023-01-22T10:26:55.371Z,2.85
2023-01-22T10:31:58.806Z,2.03
2023-01-22T10:34:33.118Z,2.90
2023-01-22T10:37:05.232Z,2.42
2023-01-22T10:39:42.031Z,2.63
2023-01-22T10:42:21.653Z,2.22
2023-01-22T10:44:52.416Z,2.78
2023-01-22T10:47:24.153Z,2.85
2023-01-22T10:50:04.976Z,3.13
2023-01-22T10:52:40.396Z,3.03
2023-01-22T10:55:22.615Z,2.67
2023-01-22T10:57:56.432Z,2.50
2023-01-22T11:00:50.257Z,2.28
2023-01-22T11:03:24.274Z,2.35
2023-01-22T11:05:58.057Z,1.88
2023-01-22T11:08:31.191Z,2.08
2023-01-22T11:11:04.656Z,3.30
2023-01-22T11:13:43.339Z,2.58
2023-01-22T11:16:18.532Z,3.17
2023-01-22T11:18:55.590Z,4.20
2023-01-22T11:21:28.571Z,2.63
2023-01-22T11:24:02.641Z,2.58
2023-01-22T11:26:44.617Z,3.55
2023-01-22T11:29:28.551Z,2.55
2023-01-22T11:32:15.729Z,2.75
2023-01-22T11:34:55.686Z,2.70
2023-01-22T11:37:46.863Z,2.40
2023-01-22T11:40:24.562Z,2.33
2023-01-22T11:43:09.190Z,2.15
2023-01-22T11:46:03.870Z,2.58
2023-01-22T11:48:46.212Z,2.25
2023-01-22T11:51:25.103Z,2.47
2023-01-22T11:54:22.328Z,3.00
2023-01-22T11:57:06.345Z,3.00
2023-01-22T11:59:53.666Z,2.33
2023-01-22T12:02:42.844Z,2.53
2023-01-22T12:05:26.931Z,2.38
2023-01-22T12:08:14.967Z,2.00
2023-01-22T12:11:04.768Z,2.45
2023-01-22T12:13:55.991Z,2.15
2023-01-22T12:19:27.897Z,2.00
2023-01-22T12:22:08.773Z,1.65
2023-01-22T12:24:44.464Z,2.72
2023-01-22T12:27:25.806Z,2.25
2023-01-22T12:30:02.115Z,2.60
2023-01-22T12:32:35.387Z,2.17
2023-01-22T12:35:09.216Z,2.58
2023-01-22T12:37:45.315Z,2.47
2023-01-22T12:40:32.435Z,2.22
2023-01-22T12:43:03.467Z,2.50
2023-01-22T12:45:42.070Z,2.80
2023-01-22T12:48:19.722Z,2.65
2023-01-22T12:50:54.023Z,2.08
2023-01-22T12:53:27.910Z,2.70
2023-01-22T12:56:04.571Z,3.03
2023-01-22T12:58:35.051Z,2.28
2023-01-22T13:01:07.249Z,2.50
2023-01-22T13:03:36.551Z,2.92
2023-01-22T13:06:20.033Z,2.22
2023-01-22T13:08:52.740Z,2.60
2023-01-22T13:11:33.033Z,3.20
2023-01-22T13:14:15.602Z,2.70
2023-01-22T13:16:53.711Z,2.72
2023-01-22T13:19:27.740Z,3.60
2023-01-22T13:22:00.471Z,2.80
2023-01-22T13:24:31.867Z,3.33
2023-01-22T13:27:02.689Z,2.72
2023-01-22T13:29:37.706Z,2.67
2023-01-22T13:32:19.957Z,3.00
2023-01-22T13:34:49.177Z,3.25
2023-01-22T13:37:24.950Z,2.85
2023-01-22T13:40:11.550Z,2.67
2023-01-22T13:42:43.513Z,3.05
2023-01-22T13:45:24.099Z,3.75
2023-01-22T13:47:55.689Z,3.33
2023-01-22T13:50:29.434Z,3.97
2023-01-22T13:53:00.943Z,3.83
2023-01-22T13:55:35.399Z,4.40
2023-01-22T13:58:05.755Z,4.15
2023-01-22T14:00:38.253Z,4.65
2023-01-22T14:03:22.590Z,4.05
2023-01-22T14:05:51.471Z,4.78
2023-01-22T14:08:24.191Z,4.18
2023-01-22T14:11:00.531Z,3.90
2023-01-22T14:13:29.229Z,4.45
2023-01-22T14:16:02.437Z,4.97
2023-01-22T14:18:31.192Z,4.43
2023-01-22T14:20:59.761Z,5.50
2023-01-22T14:23:33.707Z,4.90
2023-01-22T14:26:07.577Z,6.05
2023-01-22T14:28:37.405Z,6.03
2023-01-22T14:31:09.404Z,6.55
2023-01-22T14:33:38.249Z,6.28
2023-01-22T14:36:07.643Z,4.72
2023-01-22T14:38:36.523Z,5.78
2023-01-22T14:41:07.739Z,5.10
2023-01-22T14:43:36.642Z,5.65
2023-01-22T14:46:10.809Z,6.13
2023-01-22T14:48:40.227Z,6.07
2023-01-22T14:51:13.563Z,5.93
2023-01-22T14:53:42.349Z,5.57
2023-01-22T14:56:12.481Z,5.80
2023-01-22T14:58:41.313Z,5.87
2023-01-22T15:01:18.285Z,5.75
2023-01-22T15:03:47.289Z,5.70
2023-01-22T15:06:16.771Z,5.70
2023-01-22T15:08:52.640Z,5.70
2023-01-22T15:11:22.991Z,6.82
2023-01-22T15:13:55.775Z,6.40
2023-01-22T15:16:24.709Z,6.45
2023-01-22T15:18:56.873Z,5.70
2023-01-22T15:21:26.237Z,6.18
2023-01-22T15:23:56.113Z,6.43
2023-01-22T15:26:33.628Z,7.28
2023-01-22T15:29:03.508Z,6.35
2023-01-22T15:31:33.108Z,6.28
2023-01-22T15:34:07.515Z,6.70
2023-01-22T15:36:39.911Z,6.18
2023-01-22T15:39:11.277Z,6.57
2023-01-22T15:41:41.992Z,7.20
2023-01-22T15:44:14.632Z,6.65
2023-01-22T15:46:44.830Z,5.85
2023-01-22T15:49:18.732Z,6.13
2023-01-22T15:51:51.055Z,6.65
2023-01-22T15:54:19.923Z,6.15
2023-01-22T15:56:50.256Z,6.47
2023-01-22T15:59:19.073Z,5.97
2023-01-22T16:01:48.031Z,6.13
2023-01-22T16:04:16.631Z,6.80
2023-01-22T16:06:45.077Z,6.68
2023-01-22T16:09:13.604Z,6.32
2023-01-22T16:11:42.392Z,6.45
2023-01-22T16:14:12.351Z,7.20
2023-01-22T16:16:40.867Z,7.07
2023-01-22T16:19:11.591Z,6.90
2023-01-22T16:21:40.272Z,6.15
2023-01-22T16:24:09.354Z,5.63
2023-01-22T16:26:38.185Z,6.80
2023-01-22T16:29:07.866Z,7.05
2023-01-22T16:31:38.766Z,7.03
2023-01-22T16:34:12.066Z,6.47
2023-01-22T16:36:41.584Z,7.57
2023-01-22T16:39:17.315Z,7.60
2023-01-22T16:41:48.305Z,8.13
2023-01-22T16:44:18.657Z,7.28
2023-01-22T16:46:52.541Z,6.78
2023-01-22T16:49:23.010Z,7.10
2023-01-22T16:51:54.251Z,6.72
2023-01-22T16:54:25.154Z,6.78
2023-01-22T16:56:53.621Z,6.75
2023-01-22T16:59:22.982Z,6.10
2023-01-22T17:01:53.153Z,6.38
2023-01-22T17:04:21.706Z,6.23
2023-01-22T17:06:51.941Z,5.50
2023-01-22T17:09:22.205Z,4.72
2023-01-22T17:11:51.784Z,3.80
2023-01-22T17:14:23.625Z,3.85
2023-01-22T17:16:54.066Z,4.50
2023-01-22T17:19:22.875Z,4.53
2023-01-22T17:21:53.541Z,4.20
2023-01-22T17:24:23.585Z,3.67
2023-01-22T17:26:52.800Z,4.13
2023-01-22T17:29:22.182Z,4.43
2023-01-22T17:31:50.720Z,4.38
2023-01-22T17:34:20.781Z,3.75
2023-01-22T17:36:51.203Z,3.72
2023-01-22T17:39:21.268Z,4.53
2023-01-22T17:41:50.053Z,5.00
2023-01-22T17:44:21.809Z,3.83
2023-01-22T17:46:54.958Z,4.30
2023-01-22T17:49:24.994Z,3.00
2023-01-22T17:51:53.764Z,3.88
2023-01-22T17:54:22.591Z,3.80
2023-01-22T17:56:53.911Z,3.80
2023-01-22T17:59:24.796Z,3.47
2023-01-22T18:01:53.541Z,3.47
2023-01-22T18:04:22.117Z,4.05
2023-01-22T18:06:55.454Z,3.72
2023-01-22T18:09:26.914Z,4.07
2023-01-22T18:11:58.845Z,3.67
2023-01-22T18:14:34.151Z,3.60
2023-01-22T18:17:03.710Z,4.22
2023-01-22T18:19:35.248Z,4.10
2023-01-22T18:22:05.562Z,2.92
2023-01-22T18:24:37.086Z,3.67
2023-01-22T18:27:06.883Z,3.28
2023-01-22T18:29:35.823Z,3.20
2023-01-22T18:32:05.449Z,4.50
2023-01-22T18:34:34.328Z,4.32
2023-01-22T18:37:06.867Z,3.90
2023-01-22T18:39:36.227Z,3.95
2023-01-22T18:42:05.605Z,4.40
2023-01-22T18:44:34.884Z,4.10
2023-01-22T18:47:05.451Z,4.53
2023-01-22T18:49:36.891Z,4.00
2023-01-22T18:52:07.198Z,4.75
2023-01-22T18:54:35.968Z,4.75
2023-01-22T18:57:07.144Z,4.82
2023-01-22T18:59:35.926Z,3.85
2023-01-22T19:02:05.127Z,4.55
2023-01-22T19:04:34.486Z,4.53
2023-01-22T19:07:10.589Z,4.03
2023-01-22T19:09:40.816Z,5.05
2023-01-22T19:12:13.749Z,4.78
2023-01-22T19:14:43.571Z,5.22
2023-01-22T19:17:12.364Z,5.25
2023-01-22T19:19:41.044Z,5.28
2023-01-22T19:22:18.716Z,5.32
2023-01-22T19:24:47.387Z,4.55
2023-01-22T19:27:17.233Z,5.95
2023-01-22T19:29:48.242Z,5.57
2023-01-22T19:32:27.127Z,5.35
2023-01-22T19:34:56.075Z,5.13
2023-01-22T19:37:26.690Z,5.53
2023-01-22T19:39:55.753Z,5.82
2023-01-22T19:42:25.006Z,5.57
2023-01-22T19:44:54.245Z,4.95
2023-01-22T19:47:25.631Z,6.05
2023-01-22T19:49:54.313Z,6.10
2023-01-22T19:52:23.014Z,5.90
2023-01-22T19:54:53.330Z,6.22
2023-01-22T19:57:21.972Z,6.23
2023-01-22T19:59:57.464Z,5.55
2023-01-22T20:02:29.572Z,6.07
2023-01-22T20:04:58.894Z,6.57
2023-01-22T20:07:28.585Z,6.90
2023-01-22T20:09:58.979Z,6.82
2023-01-22T20:12:30.968Z,7.13
2023-01-22T20:15:04.175Z,6.07
2023-01-22T20:17:34.272Z,6.37
2023-01-22T20:20:05.473Z,5.80
2023-01-22T20:22:34.687Z,6.47
2023-01-22T20:25:09.724Z,6.68
2023-01-22T20:27:38.592Z,6.47
2023-01-22T20:30:08.870Z,7.25
2023-01-22T20:32:37.751Z,6.40
2023-01-22T20:35:07.517Z,7.10
2023-01-22T20:37:40.217Z,7.07
2023-01-22T20:40:14.408Z,7.32
2023-01-22T20:42:43.247Z,7.13
2023-01-22T20:45:17.574Z,8.68
2023-01-22T20:47:46.692Z,7.60
2023-01-22T20:50:15.575Z,8.80
2023-01-22T20:52:45.308Z,7.82
2023-01-22T20:55:17.778Z,7.13
2023-01-22T20:57:47.209Z,7.25
2023-01-22T21:00:17.514Z,7.90
2023-01-22T21:02:46.530Z,7.60
2023-01-22T21:05:15.211Z,7.60
2023-01-22T21:07:45.310Z,7.70
2023-01-22T21:10:16.703Z,7.32
2023-01-22T21:12:48.731Z,8.15
2023-01-22T21:15:17.778Z,7.25
2023-01-22T21:17:46.649Z,7.03
2023-01-22T21:20:15.357Z,6.75
2023-01-22T21:25:16.511Z,6.65
2023-01-22T21:27:45.111Z,7.40
2023-01-22T21:30:14.616Z,7.40
2023-01-22T21:32:51.392Z,7.43
2023-01-22T21:35:20.395Z,8.10
2023-01-22T21:37:49.571Z,7.90
2023-01-22T21:40:20.269Z,8.40
2023-01-22T21:43:09.698Z,8.43
2023-01-22T21:46:01.969Z,7.97
2023-01-22T21:48:32.935Z,8.18
2023-01-22T21:51:04.192Z,8.02
2023-01-22T21:53:33.350Z,7.78
2023-01-22T21:56:03.489Z,7.40
2023-01-22T21:58:32.386Z,7.75
2023-01-22T22:01:06.068Z,7.07
2023-01-22T22:03:37.252Z,7.20
2023-01-22T22:08:38.218Z,8.05
2023-01-22T22:11:09.298Z,7.38
2023-01-22T22:16:10.211Z,6.93
2023-01-22T22:18:39.075Z,8.73
2023-01-22T22:21:09.153Z,8.77
2023-01-22T22:23:38.332Z,7.87
2023-01-22T22:26:09.887Z,7.35
2023-01-22T22:28:38.821Z,7.43
2023-01-22T22:31:11.964Z,8.07
2023-01-22T22:33:41.051Z,8.55
2023-01-22T22:38:43.182Z,7.22
2023-01-22T22:41:15.230Z,8.32
2023-01-22T22:43:47.484Z,8.82
2023-01-22T22:46:18.020Z,8.35
2023-01-22T22:48:47.953Z,8.00
2023-01-22T22:51:18.651Z,10.02
2023-01-22T22:53:48.425Z,9.52
2023-01-22T22:56:18.710Z,9.00
2023-01-22T22:58:47.587Z,9.10
2023-01-22T23:01:18.952Z,10.02
2023-01-22T23:03:48.310Z,8.40
2023-01-22T23:06:19.877Z,9.10
2023-01-22T23:08:52.498Z,9.13
2023-01-22T23:11:27.106Z,8.73
2023-01-22T23:14:01.399Z,8.50
2023-01-22T23:16:31.808Z,8.52
2023-01-22T23:19:01.500Z,9.05
2023-01-22T23:21:30.774Z,8.05
2023-01-22T23:23:59.285Z,8.60
2023-01-22T23:26:31.212Z,8.70
2023-01-22T23:29:02.387Z,8.88
2023-01-22T23:31:32.477Z,10.23
2023-01-22T23:34:04.220Z,8.93
2023-01-22T23:36:35.204Z,9.02
2023-01-22T23:39:04.461Z,9.27
2023-01-22T23:41:34.444Z,9.73
2023-01-22T23:44:03.365Z,10.02
2023-01-22T23:46:32.479Z,9.23
2023-01-22T23:49:01.041Z,9.07
2023-01-22T23:51:29.817Z,8.05
2023-01-22T23:53:58.489Z,9.70
2023-01-22T23:56:31.918Z,9.82
2023-01-22T23:59:02.156Z,11.23
